Asert, OR

11:31 PM PDT on August 29, 2014 (GMT -0700)
Aurora State | Change Station
CLOSE
Current Station
Airport
Location: Aurora,
Elevation: 197 ft
Nearby Weather Stations

Elev 197 ft 45.25 °N, 122.77 °W | Updated 38 minutes ago

Mostly Cloudy
Mostly Cloudy
68 °F
Feels Like 68 °F
N
4
Wind Variable Wind from NE

Today
High -- | Low -- °F
--% Chance of Precip.
Yesterday
High -- | Low -- °F
Precip. -- in
6:27 AM 7:52 PM
Waxing Crescent, 19% visible
Pressure 29.96 in
Visibility 10.0 miles
Clouds Mostly Cloudy 4500 ft
Dew Point 55 °F
Humidity 63%
Rainfall 0.00 in
Snow Depth 1 in
UV 0 out of 12
Pollen 3.60 out of 12
Ozone Good
PM2.5 Good
Flu Activity Not available.
METAR KUAO 300553Z AUTO 05003KT 10SM BKN045 20/13 A2996 RMK AO2 SLP144 T02000128 10244 20183 50009

More Conditions Fewer Conditions

Pressure 29.96 in
Visibility 10.0 miles
Clouds Mostly Cloudy 4500 ft
Dew Point 55 °F
Humidity 63%
Rainfall 0.00 in
Snow Depth 1 in
UV 0 out of 12
Pollen 3.60 out of 12
Ozone Good
PM2.5 Good
Flu Activity Not available.
METAR KUAO 300553Z AUTO 05003KT 10SM BKN045 20/13 A2996 RMK AO2 SLP144 T02000128 10244 20183 50009

More Conditions Fewer Conditions

10-Day Weather Forecast

Almanac

Astronomy

Aug. 29, 2014 Rise Set
Actual Time 6:27 AM PDT 7:52 PM PDT
Civil Twilight 5:56 AM PDT 8:23 PM PDT
Nautical Twilight 5:19 AM PDT 9:00 PM PDT
Astronomical Twilight 4:39 AM PDT 9:40 PM PDT
Moon 10:35 AM PDT (8/29) 9:39 PM PDT (8/29)
Length of Visible Light 14h 26m
Length of Day
13h 25m
Tomorrow will be 3m 3s shorter.
Waxing Crescent, 19% of the Moon is Illuminated
Aug 30
Waxing Crescent
Sep 2
First Quarter
Sep 8
Full
Sep 15
Last Quarter
Sep 24
New

Community

WunderPhotos

Upload Photos

1,748,460 photos uploaded!

Nearby

Air Quality

  Air Quality AQ Index Pollutant
Yesterday Good
OZONE
Yesterday Good
PM2.5
Current Good
OZONE
Current Good
PM2.5
Friday Good
PM2.5
Saturday Good
PM2.5

Snow Depth

Station Depth Elevation
North Fork 1 in 3120 ft
Blazed Alder 0 in 3650 ft
Red Hill 0 in 4400 ft
Mt. Hood Test Site 0 in 5400 ft
Greenpoint 1 in 3200 ft

Earthquake Activity

City Distance Mag. Time & Date
No recent earthquake activity has been reported nearby.
Minimum magnitude displayed is 2.5.

Coastal Water Temperatures

Place Temperature
No Stations Reporting

Nearby Weather Stations